Time;durP1;ratioP1;P1;durP2;ratioP2;P2;SDS_P1;SDS_P2;PMS_P1;PMS_P2;Temp;Humidity;BMP_temperature;BMP_pressure;BME280_temperature;BME280_humidity;BME280_pressure;Samples;Min_cycle;Max_cycle;Signal;HPM_P1;HPM_P2
2022/04/09 00:01:53;;;;;;;3.40;0.70;;;;;;;8.74;71.16;100522.56;7383229;19;20025;-65
2022/04/09 00:04:20;;;;;;;2.33;0.75;;;;;;;8.75;70.75;100521.59;7381637;19;20021;-66
2022/04/09 00:06:47;;;;;;;3.05;0.55;;;;;;;8.72;70.86;100531.56;7382840;19;20011;-67
2022/04/09 00:09:14;;;;;;;5.07;0.77;;;;;;;8.70;71.29;100536.94;7382650;19;20704;-65
2022/04/09 00:11:41;;;;;;;3.65;0.93;;;;;;;8.69;70.58;100531.84;7387227;19;20435;-65
2022/04/09 00:14:08;;;;;;;1.17;0.50;;;;;;;8.67;70.58;100536.41;7385439;19;20022;-68
2022/04/09 00:16:35;;;;;;;2.95;0.82;;;;;;;8.65;70.93;100544.44;7386467;19;20370;-67
2022/04/09 00:19:02;;;;;;;3.28;0.70;;;;;;;8.71;71.25;100545.63;7380686;19;20010;-65
2022/04/09 00:21:29;;;;;;;4.25;0.75;;;;;;;8.72;71.01;100542.88;7385079;19;20089;-66
2022/04/09 00:23:56;;;;;;;2.03;0.60;;;;;;;8.75;70.47;100553.06;7386111;19;20077;-67
2022/04/09 00:26:22;;;;;;;2.75;0.88;;;;;;;8.75;70.13;100550.44;7384215;19;20090;-65
2022/04/09 00:28:49;;;;;;;1.55;0.80;;;;;;;8.77;70.27;100551.13;7387788;19;20006;-64
2022/04/09 00:31:16;;;;;;;2.90;0.98;;;;;;;8.79;71.47;100550.94;7390631;19;20328;-67
2022/04/09 00:33:43;;;;;;;1.88;0.73;;;;;;;8.80;71.12;100548.19;7388806;19;20010;-64
2022/04/09 00:36:10;;;;;;;3.85;0.70;;;;;;;8.78;70.55;100550.16;7388072;19;20010;-68
2022/04/09 00:38:37;;;;;;;2.65;0.80;;;;;;;8.76;70.18;100561.75;7387048;19;20021;-65
2022/04/09 00:41:04;;;;;;;2.83;0.98;;;;;;;8.76;70.55;100556.50;7390242;19;20019;-67
2022/04/09 00:43:30;;;;;;;2.55;0.70;;;;;;;8.79;70.52;100564.06;7389142;19;20544;-65
2022/04/09 00:45:57;;;;;;;5.40;1.63;;;;;;;8.81;70.26;100559.50;7388943;19;20437;-67
2022/04/09 00:48:24;;;;;;;3.08;1.23;;;;;;;8.84;70.52;100565.28;7388330;19;20014;-66
2022/04/09 00:50:54;;;;;;;2.78;0.90;;;;;;;8.85;69.20;100572.19;7389236;19;20017;-64
2022/04/09 00:53:21;;;;;;;3.22;0.57;;;;;;;8.83;68.87;100563.66;7386422;19;20034;-65
2022/04/09 00:58:36;;;;;;;5.68;1.67;;;;;;;8.88;71.03;100577.16;7387405;19;20487;-66
2022/04/09 01:01:04;;;;;;;1.65;0.82;;;;;;;8.90;70.05;100580.44;7388705;19;20037;-65
2022/04/09 01:03:34;;;;;;;4.10;1.23;;;;;;;8.91;70.23;100586.50;7388391;19;20021;-64
2022/04/09 01:06:01;;;;;;;4.75;1.90;;;;;;;8.92;69.55;100585.53;7387404;19;20658;-66
2022/04/09 01:08:28;;;;;;;1.85;1.02;;;;;;;8.90;68.61;100592.72;7387400;19;20085;-64
2022/04/09 01:10:55;;;;;;;3.80;0.70;;;;;;;8.86;67.64;100594.00;7388428;19;20029;-64
2022/04/09 01:13:22;;;;;;;1.85;0.52;;;;;;;8.85;67.41;100592.34;7389508;19;20033;-64
2022/04/09 01:15:49;;;;;;;2.38;1.05;;;;;;;8.86;67.52;100604.50;7389592;19;20011;-63
2022/04/09 01:18:18;;;;;;;2.53;1.00;;;;;;;8.88;67.29;100607.81;7389277;19;20452;-62
2022/04/09 01:20:49;;;;;;;2.47;0.80;;;;;;;8.87;67.48;100611.41;7387552;19;20019;-67
2022/04/09 01:23:20;;;;;;;2.35;0.80;;;;;;;8.87;67.79;100609.59;7387216;19;20090;-66
2022/04/09 01:25:47;;;;;;;1.50;0.75;;;;;;;8.86;67.48;100610.56;7389407;19;20006;-66
2022/04/09 01:28:14;;;;;;;2.70;0.80;;;;;;;8.85;67.23;100615.94;7388117;19;20022;-64
2022/04/09 01:30:45;;;;;;;2.45;0.60;;;;;;;8.83;67.12;100616.13;7387098;19;20481;-63
2022/04/09 01:33:15;;;;;;;4.28;0.80;;;;;;;8.83;67.12;100631.03;7386990;19;20078;-65
2022/04/09 01:35:42;;;;;;;2.53;0.70;;;;;;;8.79;67.30;100630.47;7385247;19;20119;-63
2022/04/09 01:38:10;;;;;;;2.88;1.00;;;;;;;8.75;67.33;100631.75;7385405;19;20078;-65
2022/04/09 01:40:37;;;;;;;4.13;1.33;;;;;;;8.71;67.99;100638.25;7385241;19;20087;-66
2022/04/09 01:43:04;;;;;;;4.15;1.23;;;;;;;8.70;68.20;100643.63;7383828;19;20398;-65
2022/04/09 01:45:33;;;;;;;2.30;0.90;;;;;;;8.67;67.83;100643.94;7389834;19;20438;-67
2022/04/09 01:48:00;;;;;;;3.88;1.10;;;;;;;8.63;67.88;100643.41;7384773;19;20025;-63
2022/04/09 01:50:27;;;;;;;1.38;0.77;;;;;;;8.58;67.87;100635.97;7388878;19;20014;-66
2022/04/09 01:52:54;;;;;;;2.20;0.77;;;;;;;8.55;67.64;100649.38;7386619;19;20034;-66
2022/04/09 01:55:29;;;;;;;2.55;0.95;;;;;;;8.52;68.29;100638.34;7387858;19;20014;-64
2022/04/09 01:57:55;;;;;;;3.35;0.80;;;;;;;8.48;68.07;100643.03;7390056;19;20016;-65
2022/04/09 02:00:22;;;;;;;2.63;0.82;;;;;;;8.46;67.73;100645.00;7388116;19;21455;-65
2022/04/09 02:02:49;;;;;;;2.45;1.13;;;;;;;8.45;68.09;100659.06;7389368;19;20018;-62
2022/04/09 02:05:16;;;;;;;3.03;1.02;;;;;;;8.42;68.04;100661.16;7389095;19;20114;-67
2022/04/09 02:07:47;;;;;;;5.10;1.00;;;;;;;8.37;67.93;100653.72;7386805;19;20014;-66
2022/04/09 02:10:15;;;;;;;3.30;0.77;;;;;;;8.33;67.59;100667.25;7389234;19;20029;-63
2022/04/09 02:12:43;;;;;;;3.15;1.10;;;;;;;8.29;67.23;100666.66;7389408;19;20111;-64
2022/04/09 02:15:12;;;;;;;3.05;0.80;;;;;;;8.24;67.38;100683.78;7383778;19;20030;-66
2022/04/09 02:17:41;;;;;;;4.03;0.80;;;;;;;8.20;67.68;100670.16;7388383;19;20355;-66
2022/04/09 02:20:13;;;;;;;4.93;0.90;;;;;;;8.15;67.29;100680.22;7385547;19;20121;-65
2022/04/09 02:22:42;;;;;;;2.67;0.90;;;;;;;8.06;67.49;100681.06;7385087;19;20022;-64
2022/04/09 02:25:11;;;;;;;2.60;1.05;;;;;;;8.04;68.08;100690.84;7388845;19;20290;-65
2022/04/09 02:27:38;;;;;;;2.38;0.77;;;;;;;7.98;67.92;100686.16;7388076;19;20425;-66
2022/04/09 02:30:07;;;;;;;1.88;0.90;;;;;;;7.94;67.92;100692.66;7386208;19;20106;-67
2022/04/09 02:32:42;;;;;;;2.95;0.95;;;;;;;7.90;68.32;100697.34;7388669;19;20037;-66
2022/04/09 02:35:11;;;;;;;2.35;0.70;;;;;;;7.88;68.38;100698.44;7384941;19;20006;-65
2022/04/09 02:37:39;;;;;;;3.40;0.98;;;;;;;7.86;68.74;100690.75;7384474;19;20018;-66
2022/04/09 02:40:06;;;;;;;4.03;1.00;;;;;;;7.85;68.25;100691.69;7384132;19;20018;-63
2022/04/09 02:42:37;;;;;;;2.67;0.98;;;;;;;7.88;69.70;100699.28;7385086;19;20006;-67
2022/04/09 02:45:05;;;;;;;2.03;0.80;;;;;;;7.87;68.80;100705.50;7388043;19;20341;-65
2022/04/09 02:47:32;;;;;;;3.45;0.90;;;;;;;7.87;69.28;100697.66;7385083;19;20443;-67
2022/04/09 02:50:00;;;;;;;2.67;0.80;;;;;;;7.85;68.96;100703.97;7387310;19;20029;-66
2022/04/09 02:52:52;;;;;;;2.50;1.08;;;;;;;7.85;68.73;100710.03;7384656;19;20466;-66
2022/04/09 02:55:21;;;;;;;4.30;0.85;;;;;;;7.84;68.67;100712.78;7385595;19;20011;-67
2022/04/09 02:57:54;;;;;;;2.92;0.80;;;;;;;7.79;68.65;100718.44;7388218;19;20023;-63
2022/04/09 03:00:21;;;;;;;3.95;1.17;;;;;;;7.78;68.92;100713.34;7387363;19;20030;-63
2022/04/09 03:02:48;;;;;;;2.58;0.90;;;;;;;7.73;69.33;100726.84;7384476;19;20015;-66
2022/04/09 03:05:15;;;;;;;4.50;1.50;;;;;;;7.73;69.59;100722.44;7385976;19;20022;-65
2022/04/09 03:07:41;;;;;;;4.90;1.63;;;;;;;7.70;69.46;100734.97;7384622;19;20130;-65
2022/04/09 03:10:09;;;;;;;4.30;1.58;;;;;;;7.70;69.23;100734.97;7389448;19;20021;-64
2022/04/09 03:12:42;;;;;;;4.10;1.90;;;;;;;7.70;69.38;100733.19;7385949;19;20021;-64
2022/04/09 03:15:09;;;;;;;6.78;2.15;;;;;;;7.68;69.15;100735.09;7382427;19;20014;-65
2022/04/09 03:17:36;;;;;;;4.72;2.17;;;;;;;7.70;70.58;100732.34;7383536;19;20405;-67
2022/04/09 03:20:04;;;;;;;4.55;1.55;;;;;;;7.68;69.68;100742.97;7378979;19;20010;-68
2022/04/09 03:22:31;;;;;;;4.90;2.15;;;;;;;7.69;70.75;100746.41;7383855;19;20193;-66
2022/04/09 03:24:59;;;;;;;7.10;2.33;;;;;;;7.65;70.29;100745.03;7384074;19;20082;-66
2022/04/09 03:27:26;;;;;;;5.45;3.03;;;;;;;7.62;70.16;100747.91;7384283;19;20010;-65
2022/04/09 03:29:53;;;;;;;5.00;2.67;;;;;;;7.57;70.61;100747.50;7385607;19;20082;-67
2022/04/09 03:32:21;;;;;;;4.47;2.40;;;;;;;7.53;70.39;100754.78;7383201;19;20017;-66
2022/04/09 03:34:48;;;;;;;5.63;3.00;;;;;;;7.56;70.72;100759.78;7383614;19;20170;-64
2022/04/09 03:37:15;;;;;;;4.50;2.58;;;;;;;7.55;70.62;100755.50;7381087;19;20014;-65
2022/04/09 03:39:43;;;;;;;6.68;3.28;;;;;;;7.53;70.52;100765.25;7380172;19;20087;-65
2022/04/09 03:42:10;;;;;;;5.93;2.75;;;;;;;7.50;71.04;100762.94;7385160;19;20017;-66
2022/04/09 03:44:45;;;;;;;5.18;3.17;;;;;;;7.49;71.52;100771.75;7382849;19;20015;-64
2022/04/09 03:47:12;;;;;;;5.38;2.80;;;;;;;7.49;71.65;100776.97;7383499;19;20011;-66
2022/04/09 03:49:38;;;;;;;6.90;2.92;;;;;;;7.48;71.20;100780.53;7382665;19;20094;-65
2022/04/09 03:52:06;;;;;;;5.30;2.53;;;;;;;7.49;70.99;100782.22;7383257;19;20050;-67
2022/04/09 03:54:35;;;;;;;4.53;2.55;;;;;;;7.50;70.67;100788.28;7382818;19;20044;-65
2022/04/09 03:57:03;;;;;;;7.45;4.13;;;;;;;7.49;70.71;100791.84;7384710;19;20095;-65
2022/04/09 03:59:30;;;;;;;6.60;3.28;;;;;;;7.51;71.07;100792.56;7381459;19;20019;-66
2022/04/09 04:01:57;;;;;;;5.97;2.60;;;;;;;7.51;70.89;100797.78;7384370;19;20014;-65
2022/04/09 04:04:24;;;;;;;4.68;2.38;;;;;;;7.47;70.53;100802.44;7390593;19;20086;-64
2022/04/09 04:06:51;;;;;;;7.10;3.33;;;;;;;7.47;71.13;100794.59;7392704;19;20445;-67
2022/04/09 04:09:17;;;;;;;3.90;2.40;;;;;;;7.42;70.65;100804.63;7391572;19;20021;-68
2022/04/09 04:11:45;;;;;;;5.47;2.85;;;;;;;7.37;70.65;100806.81;7389756;19;21189;-66
2022/04/09 04:14:12;;;;;;;4.68;3.10;;;;;;;7.34;71.65;100816.72;7389689;19;20017;-67
2022/04/09 04:16:38;;;;;;;7.30;2.60;;;;;;;7.27;71.40;100819.88;7390589;19;20091;-64
2022/04/09 04:19:06;;;;;;;8.27;3.88;;;;;;;7.29;72.15;100817.97;7391750;19;20439;-66
2022/04/09 04:21:32;;;;;;;7.68;2.78;;;;;;;7.31;71.65;100823.06;7388049;19;20011;-66
2022/04/09 04:23:59;;;;;;;8.82;2.80;;;;;;;7.31;71.30;100818.63;7392238;19;20014;-66
2022/04/09 04:26:26;;;;;;;8.50;3.40;;;;;;;7.32;72.51;100822.91;7393426;19;20017;-65
2022/04/09 04:28:53;;;;;;;5.25;2.95;;;;;;;7.31;72.08;100828.31;7391216;19;20106;-65
2022/04/09 04:31:20;;;;;;;9.50;5.82;;;;;;;7.32;72.98;100822.91;7388749;19;20029;-65
2022/04/09 04:33:47;;;;;;;8.05;3.72;;;;;;;7.31;73.10;100826.50;7390062;19;20031;-63
2022/04/09 04:36:14;;;;;;;7.43;3.10;;;;;;;7.24;71.93;100822.75;7388800;19;20006;-64
2022/04/09 04:38:40;;;;;;;7.10;3.25;;;;;;;7.21;72.29;100820.38;7390347;19;20419;-65
2022/04/09 04:41:07;;;;;;;6.88;3.45;;;;;;;7.21;71.74;100824.81;7390335;19;20371;-65
2022/04/09 04:43:34;;;;;;;6.45;2.70;;;;;;;7.21;71.58;100828.25;7385858;19;20087;-64
2022/04/09 04:46:02;;;;;;;4.53;2.53;;;;;;;7.15;71.28;100830.56;7389004;19;20011;-66
2022/04/09 04:48:29;;;;;;;5.90;2.97;;;;;;;7.12;71.21;100833.44;7388691;19;20221;-66
2022/04/09 04:50:56;;;;;;;5.80;3.20;;;;;;;7.09;72.08;100828.47;7391651;19;20086;-65
2022/04/09 04:53:22;;;;;;;5.18;2.80;;;;;;;7.01;71.56;100836.94;7391554;19;20006;-64
2022/04/09 04:55:49;;;;;;;6.75;3.30;;;;;;;6.97;71.79;100842.56;7390494;19;20016;-65
2022/04/09 04:58:19;;;;;;;8.40;3.15;;;;;;;6.93;72.19;100841.19;7387857;19;20011;-64
2022/04/09 05:00:46;;;;;;;5.60;2.80;;;;;;;6.91;72.16;100845.72;7390358;19;20022;-66
2022/04/09 05:03:13;;;;;;;6.22;3.15;;;;;;;6.90;72.19;100851.91;7388099;19;20014;-67
2022/04/09 05:05:40;;;;;;;6.03;3.45;;;;;;;6.89;72.24;100856.31;7389171;19;20025;-64
2022/04/09 05:08:09;;;;;;;5.85;3.10;;;;;;;6.92;72.36;100855.22;7388627;19;20015;-63
2022/04/09 05:10:36;;;;;;;5.93;2.40;;;;;;;6.92;72.11;100865.66;7390799;19;20037;-63
2022/04/09 05:13:03;;;;;;;5.43;3.00;;;;;;;6.92;72.01;100863.88;7389112;19;20131;-65
2022/04/09 05:15:31;;;;;;;6.60;3.13;;;;;;;6.92;72.13;100876.97;7387129;19;20006;-65
2022/04/09 05:18:01;;;;;;;7.35;2.97;;;;;;;6.90;72.17;100870.22;7392083;19;20007;-65
2022/04/09 05:20:29;;;;;;;5.57;2.38;;;;;;;6.88;72.30;100875.56;7385150;19;20015;-63
2022/04/09 05:22:56;;;;;;;5.20;2.50;;;;;;;6.86;71.95;100887.94;7391533;19;20045;-66
2022/04/09 05:25:23;;;;;;;6.68;2.90;;;;;;;6.86;72.20;100887.94;7389107;19;20015;-66
2022/04/09 05:27:53;;;;;;;6.85;2.58;;;;;;;6.84;72.19;100895.09;7390571;19;20018;-65
2022/04/09 05:30:24;;;;;;;6.70;3.40;;;;;;;6.84;72.43;100900.31;7389465;19;20010;-63
2022/04/09 05:32:51;;;;;;;6.25;2.72;;;;;;;6.79;72.33;100899.88;7390319;19;20318;-65
2022/04/09 05:35:18;;;;;;;4.97;2.75;;;;;;;6.82;72.36;100910.06;7389028;19;20023;-64
2022/04/09 05:37:46;;;;;;;7.53;2.55;;;;;;;6.82;72.34;100917.91;7390663;19;20015;-64
2022/04/09 05:40:14;;;;;;;8.85;3.63;;;;;;;6.83;73.23;100915.19;7388815;19;20022;-64
2022/04/09 05:42:41;;;;;;;9.15;3.92;;;;;;;6.81;72.95;100924.91;7386850;19;20093;-68
2022/04/09 05:45:10;;;;;;;5.82;3.30;;;;;;;6.83;72.62;100922.19;7386488;19;20469;-66
2022/04/09 05:47:45;;;;;;;8.52;3.55;;;;;;;6.78;72.67;100922.56;7386662;19;20113;-64
2022/04/09 05:50:12;;;;;;;8.07;4.15;;;;;;;6.83;73.61;100911.72;7386437;19;20070;-67
2022/04/09 05:52:40;;;;;;;7.13;3.28;;;;;;;6.81;73.24;100917.06;7384269;19;20021;-64
2022/04/09 05:55:08;;;;;;;8.75;3.90;;;;;;;6.84;73.91;100924.69;7386171;19;20114;-63
2022/04/09 05:57:34;;;;;;;8.65;4.43;;;;;;;6.87;73.67;100931.44;7390064;19;20053;-64
2022/04/09 06:00:04;;;;;;;7.45;3.78;;;;;;;6.87;73.09;100928.81;7387689;19;20018;-64
2022/04/09 06:02:31;;;;;;;8.82;4.22;;;;;;;6.86;73.15;100941.06;7386267;19;20023;-66
2022/04/09 06:04:58;;;;;;;8.07;3.78;;;;;;;6.91;73.45;100938.06;7388538;19;20031;-63
2022/04/09 06:07:26;;;;;;;8.40;4.47;;;;;;;6.92;73.23;100939.72;7386417;19;20010;-66
2022/04/09 06:09:53;;;;;;;7.50;3.88;;;;;;;6.96;73.51;100941.13;7385636;19;20021;-65
2022/04/09 06:12:29;;;;;;;8.77;4.68;;;;;;;6.95;72.90;100942.09;7383386;19;20439;-66
2022/04/09 06:14:56;;;;;;;8.02;4.63;;;;;;;6.98;72.91;100951.47;7387693;19;20015;-67
2022/04/09 06:17:26;;;;;;;8.23;4.50;;;;;;;6.95;73.32;100944.72;7385730;19;20297;-63
2022/04/09 06:19:54;;;;;;;6.65;4.15;;;;;;;6.92;73.23;100949.34;7384377;19;20033;-66
2022/04/09 06:22:21;;;;;;;8.07;3.90;;;;;;;6.93;73.45;100958.88;7383547;19;20140;-66
2022/04/09 06:24:48;;;;;;;7.75;3.92;;;;;;;6.90;73.22;100959.13;7386038;19;20555;-66
2022/04/09 06:27:15;;;;;;;7.75;4.13;;;;;;;6.88;72.97;100962.69;7387609;19;20091;-66
2022/04/09 06:29:42;;;;;;;6.80;3.60;;;;;;;6.92;73.28;100970.28;7385066;19;20006;-67
2022/04/09 06:32:09;;;;;;;6.97;3.33;;;;;;;6.92;73.02;100968.50;7387331;19;20441;-66
2022/04/09 06:34:36;;;;;;;9.95;4.35;;;;;;;6.92;72.75;100973.72;7385642;19;20010;-67
2022/04/09 06:37:04;;;;;;;8.77;4.05;;;;;;;6.94;72.58;100974.44;7388249;19;20010;-67
2022/04/09 06:39:35;;;;;;;7.03;3.47;;;;;;;7.01;72.65;100970.34;7382538;19;20121;-64
2022/04/09 06:42:02;;;;;;;13.80;4.22;;;;;;;7.07;72.33;100976.88;7385006;19;20022;-67
2022/04/09 06:44:29;;;;;;;6.55;3.50;;;;;;;7.14;72.11;100981.47;7383286;19;20011;-65
2022/04/09 06:46:56;;;;;;;9.35;5.22;;;;;;;7.16;71.82;100976.13;7382992;19;20073;-65
2022/04/09 06:49:23;;;;;;;11.40;3.67;;;;;;;7.22;72.28;100986.06;7382787;19;20076;-64
2022/04/09 06:51:50;;;;;;;10.50;3.95;;;;;;;7.27;71.33;100995.19;7382744;19;20018;-66
2022/04/09 06:54:18;;;;;;;7.13;3.30;;;;;;;7.39;70.51;100990.72;7387824;19;20022;-64
2022/04/09 06:56:45;;;;;;;7.30;3.28;;;;;;;7.67;70.19;100990.06;7386132;19;20030;-65
2022/04/09 06:59:12;;;;;;;5.80;2.90;;;;;;;7.99;68.53;100991.72;7386098;19;20038;-65
2022/04/09 07:01:39;;;;;;;5.75;2.95;;;;;;;8.17;68.20;100992.75;7384519;19;20015;-65
2022/04/09 07:04:06;;;;;;;5.22;2.53;;;;;;;8.31;67.70;101002.91;7387029;19;20013;-65
2022/04/09 07:06:33;;;;;;;9.75;3.25;;;;;;;8.58;67.14;101004.91;7387595;19;20015;-65
2022/04/09 07:09:00;;;;;;;7.68;2.45;;;;;;;8.96;66.66;101015.41;7385125;19;20021;-65
2022/04/09 07:11:27;;;;;;;8.32;2.70;;;;;;;9.30;64.01;101014.97;7382969;19;20018;-65
2022/04/09 07:13:54;;;;;;;5.43;2.08;;;;;;;9.68;62.58;101020.19;7384927;19;20018;-64
2022/04/09 07:16:21;;;;;;;4.93;2.17;;;;;;;9.90;61.85;101026.06;7386223;19;20086;-66
2022/04/09 07:18:48;;;;;;;6.28;1.88;;;;;;;9.71;61.27;101034.81;7381573;19;20010;-68
2022/04/09 07:21:15;;;;;;;6.75;2.58;;;;;;;9.61;63.42;101028.75;7386958;19;20022;-66
2022/04/09 07:23:42;;;;;;;5.72;1.88;;;;;;;9.84;61.34;101032.72;7382319;19;20015;-66
2022/04/09 07:26:09;;;;;;;9.90;2.13;;;;;;;10.09;61.21;101042.59;7385930;19;20098;-68
2022/04/09 07:28:36;;;;;;;7.38;2.08;;;;;;;10.54;59.98;101033.97;7382323;19;20018;-65
2022/04/09 07:31:03;;;;;;;4.72;1.50;;;;;;;10.77;57.95;101031.75;7385066;19;20018;-66
2022/04/09 07:33:30;;;;;;;9.50;1.83;;;;;;;10.85;58.10;101037.91;7382394;19;20018;-66
2022/04/09 07:35:57;;;;;;;4.85;1.02;;;;;;;11.07;57.45;101036.66;7384861;19;20070;-66
2022/04/09 07:38:25;;;;;;;5.07;1.55;;;;;;;11.30;57.64;101040.47;7391533;19;20010;-65
2022/04/09 07:40:54;;;;;;;6.28;1.60;;;;;;;11.51;55.69;101043.59;7391898;19;20133;-68
2022/04/09 07:43:21;;;;;;;11.65;1.80;;;;;;;11.55;55.51;101042.31;7394748;19;20642;-66
2022/04/09 07:45:48;;;;;;;6.38;1.55;;;;;;;11.78;54.80;101040.03;7393008;19;20031;-65
2022/04/09 07:48:15;;;;;;;3.95;1.65;;;;;;;11.78;54.72;101049.75;7392367;19;20018;-67
2022/04/09 07:50:42;;;;;;;5.50;1.50;;;;;;;11.88;54.48;101053.13;7391740;19;20011;-64
2022/04/09 07:53:11;;;;;;;10.68;1.90;;;;;;;11.99;54.36;101055.47;7392281;19;20018;-66
2022/04/09 07:55:38;;;;;;;5.57;1.65;;;;;;;12.03;54.04;101058.63;7389478;19;20030;-67
2022/04/09 07:58:06;;;;;;;6.03;1.27;;;;;;;12.03;54.91;101059.47;7395287;19;20019;-68
2022/04/09 08:00:33;;;;;;;6.07;1.15;;;;;;;12.15;53.96;101066.09;7389803;19;20047;-65
2022/04/09 08:03:01;;;;;;;5.40;1.17;;;;;;;12.13;53.60;101064.63;7389910;19;20499;-66
2022/04/09 08:05:28;;;;;;;6.53;1.10;;;;;;;12.11;55.19;101062.13;7390932;19;20050;-66
2022/04/09 08:08:01;;;;;;;7.68;1.15;;;;;;;12.03;53.75;101064.75;7391158;19;20011;-67
2022/04/09 08:10:28;;;;;;;3.80;0.77;;;;;;;12.41;54.05;101066.06;7394063;19;20042;-67
2022/04/09 08:12:56;;;;;;;4.05;0.95;;;;;;;12.96;53.42;101060.28;7390206;19;20010;-67
2022/04/09 08:15:24;;;;;;;3.47;0.88;;;;;;;13.23;51.32;101070.59;7389035;19;20596;-68
2022/04/09 08:17:57;;;;;;;3.95;0.80;;;;;;;12.91;50.92;101066.06;7394160;19;20006;-67
2022/04/09 08:20:46;;;;;;;5.55;1.00;;;;;;;12.50;52.73;101072.19;7392503;19;20467;-64
2022/04/09 08:23:13;;;;;;;3.42;0.80;;;;;;;12.09;54.03;101066.72;7389185;19;20026;-67
2022/04/09 08:25:40;;;;;;;3.70;0.90;;;;;;;11.75;54.91;101077.25;7393389;19;20017;-64
2022/04/09 08:28:07;;;;;;;8.43;1.58;;;;;;;11.50;56.14;101081.47;7395433;19;20129;-66
2022/04/09 08:30:35;;;;;;;4.55;0.80;;;;;;;11.33;57.92;101079.66;7392326;19;20090;-67
2022/04/09 08:33:07;;;;;;;5.55;0.80;;;;;;;11.29;57.55;101082.75;7391468;19;20399;-67
2022/04/09 08:35:34;;;;;;;5.97;1.48;;;;;;;11.24;58.59;101082.38;7391535;19;20018;-66
2022/04/09 08:38:03;;;;;;;4.18;0.75;;;;;;;11.15;58.03;101089.38;7392252;19;20014;-68
2022/04/09 08:40:32;;;;;;;7.13;0.70;;;;;;;11.15;58.18;101084.94;7387162;19;20486;-69
2022/04/09 08:42:59;;;;;;;5.22;0.60;;;;;;;11.16;57.92;101093.69;7386601;19;20010;-64
2022/04/09 08:45:26;;;;;;;3.15;0.25;;;;;;;11.10;56.82;101089.00;7389096;19;20016;-67
2022/04/09 08:47:59;;;;;;;5.18;0.50;;;;;;;11.10;56.85;101094.28;7392248;19;20022;-68
2022/04/09 08:50:36;;;;;;;5.72;1.00;;;;;;;11.11;56.27;101095.94;7390391;19;20152;-66
2022/04/09 08:53:07;;;;;;;4.60;0.40;;;;;;;11.09;55.22;101096.06;7392055;19;20533;-68
2022/04/09 08:55:37;;;;;;;4.78;0.30;;;;;;;11.10;54.11;101091.66;7389203;19;20018;-69
2022/04/09 08:58:04;;;;;;;5.60;0.60;;;;;;;11.12;53.61;101098.41;7391654;19;20027;-66
2022/04/09 09:00:32;;;;;;;4.72;0.30;;;;;;;11.11;53.59;101095.94;7393019;19;20030;-67
2022/04/09 09:03:02;;;;;;;6.35;0.30;;;;;;;11.06;53.26;101093.75;7389950;19;20082;-66
2022/04/09 09:05:38;;;;;;;1.33;0.40;;;;;;;11.04;54.64;101087.81;7390191;19;20007;-66
2022/04/09 09:08:09;;;;;;;2.05;0.20;;;;;;;11.07;54.39;101092.75;7390706;19;20479;-63
2022/04/09 09:10:37;;;;;;;6.10;1.20;;;;;;;11.11;54.15;101106.47;7392704;19;20022;-67
2022/04/09 09:13:07;;;;;;;4.25;0.30;;;;;;;11.15;53.49;101107.81;7390248;19;20039;-65
2022/04/09 09:15:55;;;;;;;1.13;0.15;;;;;;;11.27;52.10;101114.53;7392527;19;20078;-65
2022/04/09 09:18:25;;;;;;;3.28;0.20;;;;;;;11.37;51.74;101110.03;7389179;19;20010;-68
2022/04/09 09:20:58;;;;;;;3.17;0.30;;;;;;;11.47;51.78;101116.03;7389839;19;20007;-64
2022/04/09 09:23:27;;;;;;;3.60;0.25;;;;;;;11.53;52.01;101120.69;7388166;19;20002;-66
2022/04/09 09:25:56;;;;;;;12.45;0.50;;;;;;;11.56;50.40;101119.56;7392145;19;20090;-65
2022/04/09 09:28:36;;;;;;;3.67;0.40;;;;;;;11.62;49.96;101121.59;7387391;19;20040;-65
2022/04/09 09:31:05;;;;;;;5.95;0.82;;;;;;;11.67;49.62;101116.69;7390194;19;20313;-67
2022/04/09 09:33:35;;;;;;;2.45;0.20;;;;;;;11.75;49.57;101116.78;7387884;19;20018;-65
2022/04/09 09:36:31;;;;;;;4.45;0.20;;;;;;;11.86;49.67;101115.72;7390393;19;20006;-66
2022/04/09 09:39:05;;;;;;;6.00;0.68;;;;;;;11.96;48.44;101119.06;7389171;19;20131;-67
2022/04/09 09:41:33;;;;;;;3.42;0.38;;;;;;;11.95;49.00;101106.88;7387159;19;20019;-68
2022/04/09 09:44:05;;;;;;;2.75;0.20;;;;;;;11.95;48.99;101105.06;7391657;19;20527;-64
2022/04/09 09:46:33;;;;;;;3.33;0.45;;;;;;;12.06;48.21;101111.06;7389303;19;20038;-64
2022/04/09 09:49:00;;;;;;;2.42;0.20;;;;;;;12.09;47.71;101122.13;7387731;19;20122;-66
2022/04/09 09:51:27;;;;;;;2.78;0.10;;;;;;;12.14;47.05;101125.13;7389843;19;20022;-68
2022/04/09 09:54:05;;;;;;;3.35;0.25;;;;;;;12.26;46.51;101128.31;7387348;19;20018;-65
2022/04/09 09:56:35;;;;;;;7.20;0.20;;;;;;;12.31;45.53;101120.78;7388733;19;20326;-68
2022/04/09 09:59:05;;;;;;;4.15;0.20;;;;;;;12.35;45.47;101132.66;7387286;19;20002;-66
2022/04/09 10:01:39;;;;;;;2.20;0.20;;;;;;;12.31;43.64;101116.31;7383875;19;20021;-66
2022/04/09 10:04:13;;;;;;;1.80;0.20;;;;;;;12.31;45.23;101126.03;7387672;19;20011;-65
2022/04/09 10:06:42;;;;;;;2.93;0.33;;;;;;;12.31;46.61;101129.53;7387052;19;20275;-67
2022/04/09 10:09:13;;;;;;;4.18;0.30;;;;;;;12.27;46.69;101130.81;7390296;19;20140;-65
2022/04/09 10:11:46;;;;;;;2.28;0.20;;;;;;;12.23;46.75;101134.75;7390308;19;20007;-67
2022/04/09 10:14:17;;;;;;;2.95;0.25;;;;;;;12.20;42.76;101128.94;7390762;19;20112;-67
2022/04/09 10:16:45;;;;;;;4.20;0.10;;;;;;;12.10;43.31;101125.59;7389161;19;20013;-67
2022/04/09 10:19:13;;;;;;;4.45;0.13;;;;;;;12.05;43.87;101139.25;7387348;19;20014;-66
2022/04/09 10:21:44;;;;;;;1.48;0.20;;;;;;;11.99;44.37;101132.78;7383860;19;20011;-66
2022/04/09 10:24:18;;;;;;;3.42;0.20;;;;;;;12.02;45.71;101138.72;7388289;19;20021;-67
2022/04/09 10:26:46;;;;;;;1.85;0.13;;;;;;;12.02;44.73;101136.94;7391070;19;20062;-65
2022/04/09 10:29:13;;;;;;;2.85;0.30;;;;;;;12.09;44.32;101137.94;7390241;19;20166;-67
2022/04/09 10:31:51;;;;;;;5.15;0.30;;;;;;;12.18;44.61;101144.94;7387038;19;20540;-65
2022/04/09 10:34:20;;;;;;;0.93;0.30;;;;;;;12.28;43.96;101145.66;7384301;19;20082;-68
2022/04/09 10:36:47;;;;;;;2.35;0.10;;;;;;;12.36;44.67;101143.06;7385046;19;20023;-66
2022/04/09 10:39:42;;;;;;;5.65;0.20;;;;;;;12.48;43.82;101150.72;7384772;19;20014;-66
2022/04/09 10:42:10;;;;;;;1.88;0.20;;;;;;;12.60;44.19;101147.63;7388072;19;20006;-67
2022/04/09 10:44:44;;;;;;;2.47;0.28;;;;;;;12.65;43.75;101149.78;7384635;19;20038;-65
2022/04/09 10:47:13;;;;;;;;;;;;;;;12.70;42.41;101139.59;7387803;19;20131;-66
2022/04/09 10:49:41;;;;;;;1.00;0.17;;;;;;;12.70;42.85;101143.06;7387176;19;20479;-67
2022/04/09 10:52:17;;;;;;;1.48;0.10;;;;;;;12.75;42.66;101142.59;7388441;19;20340;-65
2022/04/09 10:55:20;;;;;;;3.30;0.15;;;;;;;12.76;42.13;101144.25;7383674;19;20436;-65
2022/04/09 10:57:52;;;;;;;0.75;0.10;;;;;;;12.76;42.11;101141.59;7381145;19;20107;-66
2022/04/09 11:00:26;;;;;;;3.97;0.20;;;;;;;12.69;41.54;101133.50;7385232;19;20034;-66
2022/04/09 11:03:05;;;;;;;2.20;0.30;;;;;;;12.71;42.12;101135.97;7386136;19;20014;-65
2022/04/09 11:05:33;;;;;;;1.85;0.20;;;;;;;12.79;43.04;101143.94;7384562;19;20024;-65
2022/04/09 11:08:06;;;;;;;1.83;0.20;;;;;;;12.86;41.96;101137.84;7387146;19;20354;-66
2022/04/09 11:10:33;;;;;;;1.33;0.10;;;;;;;12.95;41.79;101136.09;7387198;19;20014;-68
2022/04/09 11:13:01;;;;;;;0.88;0.10;;;;;;;13.02;41.88;101142.34;7385546;19;20391;-67
2022/04/09 11:15:28;;;;;;;2.47;0.13;;;;;;;13.12;41.71;101150.16;7384704;19;20006;-67
2022/04/09 11:18:01;;;;;;;2.63;0.20;;;;;;;13.18;41.61;101147.72;7387641;19;20548;-64
2022/04/09 11:20:33;;;;;;;1.95;0.35;;;;;;;13.25;42.15;101139.97;7386313;19;20032;-64
2022/04/09 11:23:16;;;;;;;2.65;0.20;;;;;;;13.28;41.00;101147.56;7384672;19;20330;-66
2022/04/09 11:25:44;;;;;;;2.83;0.10;;;;;;;13.31;39.12;101151.72;7386581;19;20352;-67
2022/04/09 11:28:20;;;;;;;0.65;0.10;;;;;;;13.31;40.38;101149.06;7384152;19;20010;-65
2022/04/09 11:30:54;;;;;;;2.17;0.20;;;;;;;13.34;41.20;101146.09;7383946;19;20019;-68
2022/04/09 11:33:22;;;;;;;3.25;0.10;;;;;;;13.34;40.76;101146.94;7381807;19;20018;-63
2022/04/09 11:35:50;;;;;;;2.67;0.28;;;;;;;13.26;39.20;101145.09;7384824;19;20364;-65
2022/04/09 11:38:29;;;;;;;2.38;0.10;;;;;;;13.24;39.80;101152.38;7383514;19;20042;-67
2022/04/09 11:40:56;;;;;;;3.40;0.17;;;;;;;13.29;38.33;101159.81;7386008;19;20324;-67
2022/04/09 11:43:24;;;;;;;1.42;0.10;;;;;;;13.22;37.74;101156.97;7384154;19;20028;-66